Lake Tacoma, Illinois
Current Conditions -  °F | °C
As of 9:52 AM on Wednesday 26 Nov 2014 (Local Time) from KMDH Reporting Station
Overcast Overcast  
Wind Chill: 28°   Ceiling: 12000
Heat Index: 35°   Visibility: 10mi
Dew Point: 30°   Wind: 9mph
Humidity: 82%   Direction: 120°ESE
Pressure: 30.09"   Gusts: NA
Location:  37.7248°N, 89.197°W
Report Text: KMDH 261552Z 12008KT 10SM BKN120 OVC250 02/M01 A3009 RMK AO2 SLP192 T00171011
Loading
Personal Weather Stations






























Interactive Weather Map New forecast layout! Learn more

10-Day Weather Forecast

Advertisements
Track Severe Weather on mobile